sensor_id;sensor_type;location;lat;lon;timestamp;P1;durP1;ratioP1;P2;durP2;ratioP2
66721;SDS011;53633;49.932;10.884;2023-04-08T00:02:08;18.90;;;9.02;;
66721;SDS011;53633;49.932;10.884;2023-04-08T00:04:34;17.67;;;8.55;;
66721;SDS011;53633;49.932;10.884;2023-04-08T00:07:01;19.95;;;8.73;;
66721;SDS011;53633;49.932;10.884;2023-04-08T00:09:28;19.90;;;9.10;;
66721;SDS011;53633;49.932;10.884;2023-04-08T00:11:54;18.15;;;8.75;;
66721;SDS011;53633;49.932;10.884;2023-04-08T00:14:21;18.27;;;8.50;;
66721;SDS011;53633;49.932;10.884;2023-04-08T00:16:49;16.90;;;8.32;;
66721;SDS011;53633;49.932;10.884;2023-04-08T00:19:16;19.15;;;8.48;;
66721;SDS011;53633;49.932;10.884;2023-04-08T00:21:42;18.67;;;8.23;;
66721;SDS011;53633;49.932;10.884;2023-04-08T00:24:09;19.15;;;8.82;;
66721;SDS011;53633;49.932;10.884;2023-04-08T00:26:36;18.90;;;9.10;;
66721;SDS011;53633;49.932;10.884;2023-04-08T00:29:02;19.10;;;9.38;;
66721;SDS011;53633;49.932;10.884;2023-04-08T00:31:29;19.05;;;9.40;;
66721;SDS011;53633;49.932;10.884;2023-04-08T00:33:57;17.70;;;8.93;;
66721;SDS011;53633;49.932;10.884;2023-04-08T00:36:24;16.60;;;8.05;;
66721;SDS011;53633;49.932;10.884;2023-04-08T00:38:51;22.13;;;10.02;;
66721;SDS011;53633;49.932;10.884;2023-04-08T00:41:17;18.15;;;9.75;;
66721;SDS011;53633;49.932;10.884;2023-04-08T00:43:44;19.65;;;9.45;;
66721;SDS011;53633;49.932;10.884;2023-04-08T00:46:11;18.53;;;8.10;;
66721;SDS011;53633;49.932;10.884;2023-04-08T00:48:38;18.15;;;8.45;;
66721;SDS011;53633;49.932;10.884;2023-04-08T00:51:06;17.60;;;8.40;;
66721;SDS011;53633;49.932;10.884;2023-04-08T00:53:33;20.00;;;8.25;;
66721;SDS011;53633;49.932;10.884;2023-04-08T00:56:00;16.45;;;8.20;;
66721;SDS011;53633;49.932;10.884;2023-04-08T00:58:27;18.43;;;8.67;;
66721;SDS011;53633;49.932;10.884;2023-04-08T01:00:57;17.80;;;8.32;;
66721;SDS011;53633;49.932;10.884;2023-04-08T01:03:33;19.55;;;7.88;;
66721;SDS011;53633;49.932;10.884;2023-04-08T01:06:14;20.35;;;8.75;;
66721;SDS011;53633;49.932;10.884;2023-04-08T01:08:47;16.48;;;7.70;;
66721;SDS011;53633;49.932;10.884;2023-04-08T01:11:17;15.17;;;7.70;;
66721;SDS011;53633;49.932;10.884;2023-04-08T01:13:44;17.00;;;8.15;;
66721;SDS011;53633;49.932;10.884;2023-04-08T01:16:14;15.10;;;8.43;;
66721;SDS011;53633;49.932;10.884;2023-04-08T01:18:43;17.38;;;7.63;;
66721;SDS011;53633;49.932;10.884;2023-04-08T01:21:11;14.60;;;7.82;;
66721;SDS011;53633;49.932;10.884;2023-04-08T01:23:43;16.27;;;8.10;;
66721;SDS011;53633;49.932;10.884;2023-04-08T01:26:21;16.13;;;7.50;;
66721;SDS011;53633;49.932;10.884;2023-04-08T01:28:50;16.45;;;7.40;;
66721;SDS011;53633;49.932;10.884;2023-04-08T01:31:19;17.13;;;7.68;;
66721;SDS011;53633;49.932;10.884;2023-04-08T01:33:47;16.10;;;7.30;;
66721;SDS011;53633;49.932;10.884;2023-04-08T01:36:15;16.50;;;7.47;;
66721;SDS011;53633;49.932;10.884;2023-04-08T01:38:43;16.25;;;7.68;;
66721;SDS011;53633;49.932;10.884;2023-04-08T01:41:11;16.02;;;7.88;;
66721;SDS011;53633;49.932;10.884;2023-04-08T01:43:39;18.48;;;8.13;;
66721;SDS011;53633;49.932;10.884;2023-04-08T01:46:08;14.52;;;7.22;;
66721;SDS011;53633;49.932;10.884;2023-04-08T01:48:36;14.33;;;7.30;;
66721;SDS011;53633;49.932;10.884;2023-04-08T01:51:03;17.42;;;7.65;;
66721;SDS011;53633;49.932;10.884;2023-04-08T01:53:30;18.30;;;7.82;;
66721;SDS011;53633;49.932;10.884;2023-04-08T01:56:00;20.05;;;7.55;;
66721;SDS011;53633;49.932;10.884;2023-04-08T01:58:30;14.02;;;6.82;;
66721;SDS011;53633;49.932;10.884;2023-04-08T02:01:04;16.17;;;7.40;;
66721;SDS011;53633;49.932;10.884;2023-04-08T02:03:35;14.52;;;7.30;;
66721;SDS011;53633;49.932;10.884;2023-04-08T02:06:03;14.70;;;7.80;;
66721;SDS011;53633;49.932;10.884;2023-04-08T02:08:32;15.63;;;7.43;;
66721;SDS011;53633;49.932;10.884;2023-04-08T02:10:59;15.90;;;7.28;;
66721;SDS011;53633;49.932;10.884;2023-04-08T02:13:25;15.33;;;7.00;;
66721;SDS011;53633;49.932;10.884;2023-04-08T02:15:55;13.88;;;7.07;;
66721;SDS011;53633;49.932;10.884;2023-04-08T02:18:27;13.05;;;7.18;;
66721;SDS011;53633;49.932;10.884;2023-04-08T02:20:56;14.60;;;7.15;;
66721;SDS011;53633;49.932;10.884;2023-04-08T02:23:28;16.08;;;7.15;;
66721;SDS011;53633;49.932;10.884;2023-04-08T02:25:58;17.50;;;7.77;;
66721;SDS011;53633;49.932;10.884;2023-04-08T02:28:27;14.63;;;6.95;;
66721;SDS011;53633;49.932;10.884;2023-04-08T02:30:55;12.70;;;6.85;;
66721;SDS011;53633;49.932;10.884;2023-04-08T02:33:23;14.88;;;7.15;;
66721;SDS011;53633;49.932;10.884;2023-04-08T02:35:53;13.80;;;6.95;;
66721;SDS011;53633;49.932;10.884;2023-04-08T02:38:21;14.47;;;6.97;;
66721;SDS011;53633;49.932;10.884;2023-04-08T02:40:48;17.48;;;7.60;;
66721;SDS011;53633;49.932;10.884;2023-04-08T02:43:15;17.08;;;7.68;;
66721;SDS011;53633;49.932;10.884;2023-04-08T02:45:42;14.02;;;6.80;;
66721;SDS011;53633;49.932;10.884;2023-04-08T02:48:09;13.77;;;6.72;;
66721;SDS011;53633;49.932;10.884;2023-04-08T02:50:36;13.40;;;6.70;;
66721;SDS011;53633;49.932;10.884;2023-04-08T02:53:04;15.05;;;6.80;;
66721;SDS011;53633;49.932;10.884;2023-04-08T02:55:31;15.10;;;6.82;;
66721;SDS011;53633;49.932;10.884;2023-04-08T02:57:58;15.38;;;6.70;;
66721;SDS011;53633;49.932;10.884;2023-04-08T03:00:24;15.48;;;6.32;;
66721;SDS011;53633;49.932;10.884;2023-04-08T03:02:51;15.37;;;6.63;;
66721;SDS011;53633;49.932;10.884;2023-04-08T03:05:18;14.23;;;6.57;;
66721;SDS011;53633;49.932;10.884;2023-04-08T03:07:45;14.07;;;6.35;;
66721;SDS011;53633;49.932;10.884;2023-04-08T03:10:13;14.50;;;7.35;;
66721;SDS011;53633;49.932;10.884;2023-04-08T03:12:39;14.88;;;6.80;;
66721;SDS011;53633;49.932;10.884;2023-04-08T03:15:06;14.53;;;6.50;;
66721;SDS011;53633;49.932;10.884;2023-04-08T03:17:33;14.45;;;6.82;;
66721;SDS011;53633;49.932;10.884;2023-04-08T03:20:00;14.10;;;6.63;;
66721;SDS011;53633;49.932;10.884;2023-04-08T03:22:27;16.77;;;6.93;;
66721;SDS011;53633;49.932;10.884;2023-04-08T03:24:54;13.07;;;6.45;;
66721;SDS011;53633;49.932;10.884;2023-04-08T03:27:22;16.43;;;6.60;;
66721;SDS011;53633;49.932;10.884;2023-04-08T03:29:49;14.20;;;6.25;;
66721;SDS011;53633;49.932;10.884;2023-04-08T03:32:16;15.48;;;7.28;;
66721;SDS011;53633;49.932;10.884;2023-04-08T03:34:42;14.25;;;6.43;;
66721;SDS011;53633;49.932;10.884;2023-04-08T03:37:09;15.77;;;7.18;;
66721;SDS011;53633;49.932;10.884;2023-04-08T03:39:36;14.87;;;6.77;;
66721;SDS011;53633;49.932;10.884;2023-04-08T03:42:03;15.38;;;6.75;;
66721;SDS011;53633;49.932;10.884;2023-04-08T03:44:31;15.65;;;7.85;;
66721;SDS011;53633;49.932;10.884;2023-04-08T03:46:58;14.30;;;7.30;;
66721;SDS011;53633;49.932;10.884;2023-04-08T03:49:24;15.38;;;7.18;;
66721;SDS011;53633;49.932;10.884;2023-04-08T03:51:51;13.80;;;6.13;;
66721;SDS011;53633;49.932;10.884;2023-04-08T03:54:18;16.15;;;6.90;;
66721;SDS011;53633;49.932;10.884;2023-04-08T03:56:44;13.75;;;6.97;;
66721;SDS011;53633;49.932;10.884;2023-04-08T03:59:11;15.10;;;7.15;;
66721;SDS011;53633;49.932;10.884;2023-04-08T04:01:39;18.27;;;7.50;;
66721;SDS011;53633;49.932;10.884;2023-04-08T04:04:07;14.80;;;7.10;;
66721;SDS011;53633;49.932;10.884;2023-04-08T04:06:34;15.38;;;7.45;;
66721;SDS011;53633;49.932;10.884;2023-04-08T04:09:01;14.35;;;7.18;;
66721;SDS011;53633;49.932;10.884;2023-04-08T04:11:27;15.38;;;6.90;;
66721;SDS011;53633;49.932;10.884;2023-04-08T04:13:54;13.68;;;6.63;;
66721;SDS011;53633;49.932;10.884;2023-04-08T04:16:21;17.90;;;7.33;;
66721;SDS011;53633;49.932;10.884;2023-04-08T04:18:49;13.63;;;6.90;;
66721;SDS011;53633;49.932;10.884;2023-04-08T04:21:18;15.00;;;7.38;;
66721;SDS011;53633;49.932;10.884;2023-04-08T04:23:44;15.15;;;7.13;;
66721;SDS011;53633;49.932;10.884;2023-04-08T04:26:11;15.15;;;7.45;;
66721;SDS011;53633;49.932;10.884;2023-04-08T04:28:38;17.30;;;7.37;;
66721;SDS011;53633;49.932;10.884;2023-04-08T04:31:04;15.07;;;7.57;;
66721;SDS011;53633;49.932;10.884;2023-04-08T04:33:31;16.15;;;7.55;;
66721;SDS011;53633;49.932;10.884;2023-04-08T04:35:59;15.57;;;7.28;;
66721;SDS011;53633;49.932;10.884;2023-04-08T04:38:26;13.88;;;6.90;;
66721;SDS011;53633;49.932;10.884;2023-04-08T04:40:52;16.63;;;7.17;;
66721;SDS011;53633;49.932;10.884;2023-04-08T04:43:19;14.82;;;7.40;;
66721;SDS011;53633;49.932;10.884;2023-04-08T04:45:45;14.80;;;7.18;;
66721;SDS011;53633;49.932;10.884;2023-04-08T04:48:12;18.05;;;7.43;;
66721;SDS011;53633;49.932;10.884;2023-04-08T04:50:39;15.35;;;6.93;;
66721;SDS011;53633;49.932;10.884;2023-04-08T04:53:07;14.40;;;7.17;;
66721;SDS011;53633;49.932;10.884;2023-04-08T04:55:33;13.57;;;6.60;;
66721;SDS011;53633;49.932;10.884;2023-04-08T04:58:02;16.63;;;7.00;;
66721;SDS011;53633;49.932;10.884;2023-04-08T05:00:29;15.95;;;7.40;;
66721;SDS011;53633;49.932;10.884;2023-04-08T05:02:56;14.38;;;7.32;;
66721;SDS011;53633;49.932;10.884;2023-04-08T05:05:23;13.90;;;7.10;;
66721;SDS011;53633;49.932;10.884;2023-04-08T05:07:49;14.45;;;6.78;;
66721;SDS011;53633;49.932;10.884;2023-04-08T05:10:17;15.95;;;7.63;;
66721;SDS011;53633;49.932;10.884;2023-04-08T05:12:44;14.77;;;7.05;;
66721;SDS011;53633;49.932;10.884;2023-04-08T05:15:11;14.57;;;7.10;;
66721;SDS011;53633;49.932;10.884;2023-04-08T05:17:37;13.87;;;7.17;;
66721;SDS011;53633;49.932;10.884;2023-04-08T05:20:04;17.23;;;7.45;;
66721;SDS011;53633;49.932;10.884;2023-04-08T05:22:32;13.95;;;7.20;;
66721;SDS011;53633;49.932;10.884;2023-04-08T05:24:59;12.88;;;6.75;;
66721;SDS011;53633;49.932;10.884;2023-04-08T05:27:27;15.57;;;7.47;;
66721;SDS011;53633;49.932;10.884;2023-04-08T05:29:53;15.30;;;7.10;;
66721;SDS011;53633;49.932;10.884;2023-04-08T05:32:20;14.15;;;6.63;;
66721;SDS011;53633;49.932;10.884;2023-04-08T05:34:46;14.68;;;7.20;;
66721;SDS011;53633;49.932;10.884;2023-04-08T05:37:13;15.23;;;7.35;;
66721;SDS011;53633;49.932;10.884;2023-04-08T05:39:40;15.38;;;7.80;;
66721;SDS011;53633;49.932;10.884;2023-04-08T05:42:06;14.23;;;6.93;;
66721;SDS011;53633;49.932;10.884;2023-04-08T05:44:34;18.48;;;7.07;;
66721;SDS011;53633;49.932;10.884;2023-04-08T05:47:01;16.63;;;7.53;;
66721;SDS011;53633;49.932;10.884;2023-04-08T05:49:28;14.45;;;6.80;;
66721;SDS011;53633;49.932;10.884;2023-04-08T05:51:55;14.73;;;6.68;;
66721;SDS011;53633;49.932;10.884;2023-04-08T05:54:21;14.30;;;7.07;;
66721;SDS011;53633;49.932;10.884;2023-04-08T05:56:48;12.38;;;6.68;;
66721;SDS011;53633;49.932;10.884;2023-04-08T05:59:14;14.65;;;7.13;;
66721;SDS011;53633;49.932;10.884;2023-04-08T06:01:42;15.80;;;6.53;;
66721;SDS011;53633;49.932;10.884;2023-04-08T06:04:09;16.20;;;6.95;;
66721;SDS011;53633;49.932;10.884;2023-04-08T06:06:36;11.93;;;6.20;;
66721;SDS011;53633;49.932;10.884;2023-04-08T06:09:03;12.80;;;6.30;;
66721;SDS011;53633;49.932;10.884;2023-04-08T06:11:29;14.95;;;6.57;;
66721;SDS011;53633;49.932;10.884;2023-04-08T06:13:56;15.13;;;6.53;;
66721;SDS011;53633;49.932;10.884;2023-04-08T06:16:23;15.45;;;6.97;;
66721;SDS011;53633;49.932;10.884;2023-04-08T06:18:51;13.83;;;6.53;;
66721;SDS011;53633;49.932;10.884;2023-04-08T06:21:18;18.60;;;7.32;;
66721;SDS011;53633;49.932;10.884;2023-04-08T06:23:45;14.50;;;7.22;;
66721;SDS011;53633;49.932;10.884;2023-04-08T06:26:11;16.33;;;7.45;;
66721;SDS011;53633;49.932;10.884;2023-04-08T06:28:38;16.67;;;7.40;;
66721;SDS011;53633;49.932;10.884;2023-04-08T06:31:04;15.90;;;7.43;;
66721;SDS011;53633;49.932;10.884;2023-04-08T06:33:31;14.95;;;6.88;;
66721;SDS011;53633;49.932;10.884;2023-04-08T06:36:02;13.55;;;6.75;;
66721;SDS011;53633;49.932;10.884;2023-04-08T06:38:31;12.45;;;6.20;;
66721;SDS011;53633;49.932;10.884;2023-04-08T06:41:00;12.20;;;6.00;;
66721;SDS011;53633;49.932;10.884;2023-04-08T06:43:27;13.07;;;5.50;;
66721;SDS011;53633;49.932;10.884;2023-04-08T06:45:54;11.57;;;5.60;;
66721;SDS011;53633;49.932;10.884;2023-04-08T06:48:21;13.65;;;5.88;;
66721;SDS011;53633;49.932;10.884;2023-04-08T06:50:47;11.40;;;5.60;;
66721;SDS011;53633;49.932;10.884;2023-04-08T06:53:15;12.02;;;5.43;;
66721;SDS011;53633;49.932;10.884;2023-04-08T06:55:42;10.90;;;5.13;;
66721;SDS011;53633;49.932;10.884;2023-04-08T06:58:09;11.07;;;5.10;;
66721;SDS011;53633;49.932;10.884;2023-04-08T07:00:35;11.65;;;5.38;;
66721;SDS011;53633;49.932;10.884;2023-04-08T07:03:02;11.52;;;5.10;;
66721;SDS011;53633;49.932;10.884;2023-04-08T07:05:29;10.77;;;5.22;;
66721;SDS011;53633;49.932;10.884;2023-04-08T07:07:55;10.93;;;4.57;;
66721;SDS011;53633;49.932;10.884;2023-04-08T07:10:23;9.45;;;4.43;;
66721;SDS011;53633;49.932;10.884;2023-04-08T07:12:50;11.02;;;5.60;;
66721;SDS011;53633;49.932;10.884;2023-04-08T07:15:17;10.68;;;4.53;;
66721;SDS011;53633;49.932;10.884;2023-04-08T07:17:43;10.45;;;4.13;;
66721;SDS011;53633;49.932;10.884;2023-04-08T07:20:10;9.83;;;4.17;;
66721;SDS011;53633;49.932;10.884;2023-04-08T07:22:38;10.85;;;4.03;;
66721;SDS011;53633;49.932;10.884;2023-04-08T07:25:05;9.75;;;4.47;;
66721;SDS011;53633;49.932;10.884;2023-04-08T07:27:33;9.68;;;3.45;;
66721;SDS011;53633;49.932;10.884;2023-04-08T07:30:00;9.20;;;3.75;;
66721;SDS011;53633;49.932;10.884;2023-04-08T07:32:27;8.90;;;3.67;;
66721;SDS011;53633;49.932;10.884;2023-04-08T07:34:53;8.43;;;3.42;;
66721;SDS011;53633;49.932;10.884;2023-04-08T07:37:20;9.23;;;3.70;;
66721;SDS011;53633;49.932;10.884;2023-04-08T07:39:47;10.38;;;4.00;;
66721;SDS011;53633;49.932;10.884;2023-04-08T07:42:13;8.65;;;3.78;;
66721;SDS011;53633;49.932;10.884;2023-04-08T07:44:42;9.83;;;3.63;;
66721;SDS011;53633;49.932;10.884;2023-04-08T07:47:10;8.82;;;3.67;;
66721;SDS011;53633;49.932;10.884;2023-04-08T07:49:37;9.60;;;4.00;;
66721;SDS011;53633;49.932;10.884;2023-04-08T07:52:03;9.00;;;3.30;;
66721;SDS011;53633;49.932;10.884;2023-04-08T07:54:30;8.98;;;3.17;;
66721;SDS011;53633;49.932;10.884;2023-04-08T07:56:57;10.73;;;3.20;;
66721;SDS011;53633;49.932;10.884;2023-04-08T07:59:24;8.98;;;3.42;;
66721;SDS011;53633;49.932;10.884;2023-04-08T08:01:52;8.15;;;3.75;;
66721;SDS011;53633;49.932;10.884;2023-04-08T08:04:18;8.10;;;3.10;;
66721;SDS011;53633;49.932;10.884;2023-04-08T08:06:45;8.05;;;3.25;;
66721;SDS011;53633;49.932;10.884;2023-04-08T08:09:12;7.47;;;3.20;;
66721;SDS011;53633;49.932;10.884;2023-04-08T08:11:39;8.00;;;2.92;;
66721;SDS011;53633;49.932;10.884;2023-04-08T08:14:06;7.20;;;2.92;;
66721;SDS011;53633;49.932;10.884;2023-04-08T08:16:32;7.80;;;3.08;;
66721;SDS011;53633;49.932;10.884;2023-04-08T08:19:00;8.05;;;3.13;;
66721;SDS011;53633;49.932;10.884;2023-04-08T08:21:27;8.43;;;2.90;;
66721;SDS011;53633;49.932;10.884;2023-04-08T08:23:54;9.63;;;3.42;;
66721;SDS011;53633;49.932;10.884;2023-04-08T08:26:21;8.88;;;3.50;;
66721;SDS011;53633;49.932;10.884;2023-04-08T08:28:47;9.50;;;3.45;;
66721;SDS011;53633;49.932;10.884;2023-04-08T08:31:14;6.72;;;2.90;;
66721;SDS011;53633;49.932;10.884;2023-04-08T08:33:47;7.27;;;2.73;;
66721;SDS011;53633;49.932;10.884;2023-04-08T08:36:15;8.43;;;2.97;;
66721;SDS011;53633;49.932;10.884;2023-04-08T08:38:42;8.27;;;3.60;;
66721;SDS011;53633;49.932;10.884;2023-04-08T08:41:08;7.10;;;2.67;;
66721;SDS011;53633;49.932;10.884;2023-04-08T08:43:35;8.98;;;3.00;;
66721;SDS011;53633;49.932;10.884;2023-04-08T08:46:02;9.30;;;3.27;;
66721;SDS011;53633;49.932;10.884;2023-04-08T08:48:30;9.85;;;3.50;;
66721;SDS011;53633;49.932;10.884;2023-04-08T08:50:57;10.50;;;3.10;;
66721;SDS011;53633;49.932;10.884;2023-04-08T08:53:28;8.27;;;3.55;;
66721;SDS011;53633;49.932;10.884;2023-04-08T08:55:56;8.38;;;3.33;;
66721;SDS011;53633;49.932;10.884;2023-04-08T08:58:42;9.67;;;3.60;;
66721;SDS011;53633;49.932;10.884;2023-04-08T09:04:08;9.07;;;3.47;;
66721;SDS011;53633;49.932;10.884;2023-04-08T09:06:39;11.35;;;4.65;;
66721;SDS011;53633;49.932;10.884;2023-04-08T09:09:08;9.48;;;3.60;;
66721;SDS011;53633;49.932;10.884;2023-04-08T09:11:34;7.60;;;3.37;;
66721;SDS011;53633;49.932;10.884;2023-04-08T09:14:01;7.95;;;3.08;;
66721;SDS011;53633;49.932;10.884;2023-04-08T09:16:28;9.60;;;3.20;;
66721;SDS011;53633;49.932;10.884;2023-04-08T09:18:57;7.85;;;3.10;;
66721;SDS011;53633;49.932;10.884;2023-04-08T09:21:34;7.28;;;2.80;;
66721;SDS011;53633;49.932;10.884;2023-04-08T09:24:00;7.80;;;3.00;;
66721;SDS011;53633;49.932;10.884;2023-04-08T09:26:28;7.97;;;3.45;;
66721;SDS011;53633;49.932;10.884;2023-04-08T09:28:58;11.40;;;4.00;;
66721;SDS011;53633;49.932;10.884;2023-04-08T09:31:43;7.55;;;3.13;;
66721;SDS011;53633;49.932;10.884;2023-04-08T09:34:11;11.10;;;4.10;;
66721;SDS011;53633;49.932;10.884;2023-04-08T09:36:38;9.50;;;3.20;;
66721;SDS011;53633;49.932;10.884;2023-04-08T09:39:05;7.03;;;3.00;;
66721;SDS011;53633;49.932;10.884;2023-04-08T09:41:34;7.13;;;2.63;;
66721;SDS011;53633;49.932;10.884;2023-04-08T09:44:02;6.20;;;2.90;;
66721;SDS011;53633;49.932;10.884;2023-04-08T09:46:31;7.40;;;3.03;;
66721;SDS011;53633;49.932;10.884;2023-04-08T09:49:04;7.57;;;2.80;;
66721;SDS011;53633;49.932;10.884;2023-04-08T09:51:34;6.25;;;2.80;;
66721;SDS011;53633;49.932;10.884;2023-04-08T09:54:05;6.45;;;2.58;;
66721;SDS011;53633;49.932;10.884;2023-04-08T09:56:40;6.43;;;2.40;;
66721;SDS011;53633;49.932;10.884;2023-04-08T09:59:11;6.88;;;2.30;;
66721;SDS011;53633;49.932;10.884;2023-04-08T10:01:41;8.03;;;3.07;;
66721;SDS011;53633;49.932;10.884;2023-04-08T10:04:12;7.32;;;3.25;;
66721;SDS011;53633;49.932;10.884;2023-04-08T10:06:40;6.47;;;2.88;;
66721;SDS011;53633;49.932;10.884;2023-04-08T10:09:07;7.53;;;2.78;;
66721;SDS011;53633;49.932;10.884;2023-04-08T10:11:35;7.63;;;2.92;;
66721;SDS011;53633;49.932;10.884;2023-04-08T10:14:03;6.70;;;3.03;;
66721;SDS011;53633;49.932;10.884;2023-04-08T10:16:30;6.00;;;2.35;;
66721;SDS011;53633;49.932;10.884;2023-04-08T10:18:57;5.45;;;2.22;;
66721;SDS011;53633;49.932;10.884;2023-04-08T10:21:30;6.57;;;2.80;;
66721;SDS011;53633;49.932;10.884;2023-04-08T10:24:01;5.80;;;2.70;;
66721;SDS011;53633;49.932;10.884;2023-04-08T10:26:31;5.43;;;2.00;;
66721;SDS011;53633;49.932;10.884;2023-04-08T10:31:58;5.38;;;2.20;;
66721;SDS011;53633;49.932;10.884;2023-04-08T10:34:25;5.80;;;2.35;;
66721;SDS011;53633;49.932;10.884;2023-04-08T10:36:53;4.93;;;1.70;;
66721;SDS011;53633;49.932;10.884;2023-04-08T10:39:21;5.77;;;2.10;;
66721;SDS011;53633;49.932;10.884;2023-04-08T10:41:48;7.43;;;2.20;;
66721;SDS011;53633;49.932;10.884;2023-04-08T10:44:15;6.43;;;2.30;;
66721;SDS011;53633;49.932;10.884;2023-04-08T10:46:44;5.82;;;2.17;;
66721;SDS011;53633;49.932;10.884;2023-04-08T10:49:11;5.43;;;2.20;;
66721;SDS011;53633;49.932;10.884;2023-04-08T10:51:37;6.23;;;2.50;;
66721;SDS011;53633;49.932;10.884;2023-04-08T10:54:05;5.53;;;2.40;;
66721;SDS011;53633;49.932;10.884;2023-04-08T10:56:31;6.38;;;2.70;;
66721;SDS011;53633;49.932;10.884;2023-04-08T10:58:58;6.78;;;2.38;;
66721;SDS011;53633;49.932;10.884;2023-04-08T11:01:25;5.57;;;2.20;;
66721;SDS011;53633;49.932;10.884;2023-04-08T11:03:53;5.53;;;2.07;;
66721;SDS011;53633;49.932;10.884;2023-04-08T11:06:20;6.20;;;2.40;;
66721;SDS011;53633;49.932;10.884;2023-04-08T11:08:47;6.43;;;2.60;;
66721;SDS011;53633;49.932;10.884;2023-04-08T11:11:14;5.50;;;2.30;;
66721;SDS011;53633;49.932;10.884;2023-04-08T11:13:41;6.47;;;2.70;;
66721;SDS011;53633;49.932;10.884;2023-04-08T11:16:18;5.40;;;2.10;;
66721;SDS011;53633;49.932;10.884;2023-04-08T11:18:46;5.57;;;2.05;;
66721;SDS011;53633;49.932;10.884;2023-04-08T11:21:15;5.32;;;2.10;;
66721;SDS011;53633;49.932;10.884;2023-04-08T11:23:42;5.20;;;2.03;;
66721;SDS011;53633;49.932;10.884;2023-04-08T11:26:09;5.38;;;1.83;;
66721;SDS011;53633;49.932;10.884;2023-04-08T11:28:36;5.57;;;1.70;;
66721;SDS011;53633;49.932;10.884;2023-04-08T11:31:03;5.47;;;1.77;;
66721;SDS011;53633;49.932;10.884;2023-04-08T11:33:31;5.88;;;2.10;;
66721;SDS011;53633;49.932;10.884;2023-04-08T11:35:59;5.50;;;2.08;;
66721;SDS011;53633;49.932;10.884;2023-04-08T11:38:28;5.72;;;1.90;;
66721;SDS011;53633;49.932;10.884;2023-04-08T11:40:56;5.17;;;1.80;;
66721;SDS011;53633;49.932;10.884;2023-04-08T11:43:23;4.95;;;1.83;;
66721;SDS011;53633;49.932;10.884;2023-04-08T11:45:50;5.22;;;1.83;;
66721;SDS011;53633;49.932;10.884;2023-04-08T11:48:17;5.63;;;1.70;;
66721;SDS011;53633;49.932;10.884;2023-04-08T11:50:44;5.45;;;1.85;;
66721;SDS011;53633;49.932;10.884;2023-04-08T11:53:17;6.13;;;1.87;;
66721;SDS011;53633;49.932;10.884;2023-04-08T11:55:45;5.85;;;1.90;;
66721;SDS011;53633;49.932;10.884;2023-04-08T11:58:13;6.57;;;2.40;;
66721;SDS011;53633;49.932;10.884;2023-04-08T12:00:40;6.47;;;2.15;;
66721;SDS011;53633;49.932;10.884;2023-04-08T12:03:06;5.97;;;2.03;;
66721;SDS011;53633;49.932;10.884;2023-04-08T12:05:33;7.27;;;2.00;;
66721;SDS011;53633;49.932;10.884;2023-04-08T12:08:00;6.40;;;2.10;;
66721;SDS011;53633;49.932;10.884;2023-04-08T12:10:27;5.47;;;1.73;;
66721;SDS011;53633;49.932;10.884;2023-04-08T12:12:55;7.18;;;2.40;;
66721;SDS011;53633;49.932;10.884;2023-04-08T12:15:22;6.68;;;2.00;;
66721;SDS011;53633;49.932;10.884;2023-04-08T12:17:48;6.73;;;2.17;;
66721;SDS011;53633;49.932;10.884;2023-04-08T12:20:15;6.50;;;2.20;;
66721;SDS011;53633;49.932;10.884;2023-04-08T12:22:42;6.88;;;2.30;;
66721;SDS011;53633;49.932;10.884;2023-04-08T12:25:08;7.07;;;2.35;;
66721;SDS011;53633;49.932;10.884;2023-04-08T12:27:35;7.40;;;2.42;;
66721;SDS011;53633;49.932;10.884;2023-04-08T12:30:04;7.33;;;1.80;;
66721;SDS011;53633;49.932;10.884;2023-04-08T12:32:32;6.50;;;1.90;;
66721;SDS011;53633;49.932;10.884;2023-04-08T12:34:58;7.60;;;2.40;;
66721;SDS011;53633;49.932;10.884;2023-04-08T12:37:25;8.05;;;1.92;;
66721;SDS011;53633;49.932;10.884;2023-04-08T12:39:52;6.70;;;2.13;;
66721;SDS011;53633;49.932;10.884;2023-04-08T12:42:19;9.13;;;2.43;;
66721;SDS011;53633;49.932;10.884;2023-04-08T12:44:45;6.20;;;2.10;;
66721;SDS011;53633;49.932;10.884;2023-04-08T12:47:13;6.18;;;2.20;;
66721;SDS011;53633;49.932;10.884;2023-04-08T12:49:40;6.47;;;1.75;;
66721;SDS011;53633;49.932;10.884;2023-04-08T12:52:09;6.38;;;2.03;;
66721;SDS011;53633;49.932;10.884;2023-04-08T12:54:36;5.93;;;2.03;;
66721;SDS011;53633;49.932;10.884;2023-04-08T12:57:03;8.77;;;2.22;;
66721;SDS011;53633;49.932;10.884;2023-04-08T12:59:29;7.60;;;2.38;;
66721;SDS011;53633;49.932;10.884;2023-04-08T13:01:56;6.90;;;2.35;;
66721;SDS011;53633;49.932;10.884;2023-04-08T13:04:24;7.88;;;2.28;;
66721;SDS011;53633;49.932;10.884;2023-04-08T13:06:51;8.23;;;2.53;;
66721;SDS011;53633;49.932;10.884;2023-04-08T13:09:17;7.28;;;2.53;;
66721;SDS011;53633;49.932;10.884;2023-04-08T13:11:44;8.90;;;2.55;;
66721;SDS011;53633;49.932;10.884;2023-04-08T13:14:11;6.65;;;2.28;;
66721;SDS011;53633;49.932;10.884;2023-04-08T13:16:37;7.22;;;2.25;;
66721;SDS011;53633;49.932;10.884;2023-04-08T13:19:04;8.27;;;3.10;;
66721;SDS011;53633;49.932;10.884;2023-04-08T13:21:32;6.80;;;2.17;;
66721;SDS011;53633;49.932;10.884;2023-04-08T13:23:59;6.78;;;2.17;;
66721;SDS011;53633;49.932;10.884;2023-04-08T13:26:26;6.90;;;2.22;;
66721;SDS011;53633;49.932;10.884;2023-04-08T13:28:52;7.13;;;2.58;;
66721;SDS011;53633;49.932;10.884;2023-04-08T13:31:23;7.53;;;2.20;;
66721;SDS011;53633;49.932;10.884;2023-04-08T13:33:50;7.22;;;2.72;;
66721;SDS011;53633;49.932;10.884;2023-04-08T13:36:16;7.40;;;2.28;;
66721;SDS011;53633;49.932;10.884;2023-04-08T13:38:44;7.72;;;2.55;;
66721;SDS011;53633;49.932;10.884;2023-04-08T13:41:11;8.55;;;2.20;;
66721;SDS011;53633;49.932;10.884;2023-04-08T13:43:38;8.13;;;2.80;;
66721;SDS011;53633;49.932;10.884;2023-04-08T13:46:04;6.57;;;2.20;;
66721;SDS011;53633;49.932;10.884;2023-04-08T13:48:31;6.63;;;2.30;;
66721;SDS011;53633;49.932;10.884;2023-04-08T13:50:58;8.55;;;2.60;;
66721;SDS011;53633;49.932;10.884;2023-04-08T13:53:24;7.50;;;2.40;;
66721;SDS011;53633;49.932;10.884;2023-04-08T13:55:52;7.07;;;2.27;;
66721;SDS011;53633;49.932;10.884;2023-04-08T13:58:19;7.47;;;2.38;;
66721;SDS011;53633;49.932;10.884;2023-04-08T14:00:49;7.47;;;2.50;;
66721;SDS011;53633;49.932;10.884;2023-04-08T14:03:16;6.97;;;2.10;;
66721;SDS011;53633;49.932;10.884;2023-04-08T14:05:43;8.35;;;2.88;;
66721;SDS011;53633;49.932;10.884;2023-04-08T14:08:09;8.63;;;2.70;;
66721;SDS011;53633;49.932;10.884;2023-04-08T14:10:36;8.43;;;2.88;;
66721;SDS011;53633;49.932;10.884;2023-04-08T14:13:04;7.88;;;2.20;;
66721;SDS011;53633;49.932;10.884;2023-04-08T14:15:31;6.82;;;2.30;;
66721;SDS011;53633;49.932;10.884;2023-04-08T14:17:58;6.35;;;1.73;;
66721;SDS011;53633;49.932;10.884;2023-04-08T14:20:24;6.40;;;1.73;;
66721;SDS011;53633;49.932;10.884;2023-04-08T14:22:51;6.95;;;2.28;;
66721;SDS011;53633;49.932;10.884;2023-04-08T14:25:18;7.65;;;2.28;;
66721;SDS011;53633;49.932;10.884;2023-04-08T14:27:44;7.18;;;2.10;;
66721;SDS011;53633;49.932;10.884;2023-04-08T14:30:25;8.75;;;2.90;;
66721;SDS011;53633;49.932;10.884;2023-04-08T14:32:52;7.97;;;2.80;;
66721;SDS011;53633;49.932;10.884;2023-04-08T14:35:19;6.40;;;2.10;;
66721;SDS011;53633;49.932;10.884;2023-04-08T14:37:46;7.97;;;2.50;;